Terminal Aerodrome Forecast
Issued by NWS Charleston, WV

Current Version | Previous Version | Graphics & Text | Print | Product List | Glossary On
Versions: 1 2 3 4 5 6 7 8 9 10 11 12 13 14 15 16 17 18 19 20 21 22
000
FTUS41 KRLX 010858 AAA
TAFPKB
TAF AMD
KPKB 010858Z 0109/0206 VRB03KT P6SM SCT050
     FM011000 00000KT P6SM SCT250
     FM011600 28006KT P6SM FEW050
     FM020200 00000KT P6SM FEW060=

USA.gov is the U.S. government's official web portal to all federal, state and local government web resources and services.